Time;durP1;ratioP1;P1;durP2;ratioP2;P2;SDS_P1;SDS_P2;PMS_P1;PMS_P2;Temp;Humidity;BMP_temperature;BMP_pressure;BME280_temperature;BME280_humidity;BME280_pressure;Samples;Min_cycle;Max_cycle;Signal;HPM_P1;HPM_P2
2021/06/17 00:00:42;;;;;;;12.43;6.47;;;;;;;;;;8360791;28;20051;-70
2021/06/17 00:04:47;;;;;;;11.23;6.25;;;;;;;;;;8351039;28;20451;-68
2021/06/17 00:08:53;;;;;;;10.82;6.85;;;;;;;;;;8360854;28;20386;-69
2021/06/17 00:13:03;;;;;;;15.35;7.28;;;;;;;;;;8362127;28;20370;-69
2021/06/17 00:17:08;;;;;;;9.02;6.00;;;;;;;;;;8363044;28;20482;-68
2021/06/17 00:21:14;;;;;;;10.82;6.55;;;;;;;;;;8361570;28;20340;-69
2021/06/17 00:25:20;;;;;;;10.90;6.50;;;;;;;;;;8362883;28;20379;-68
2021/06/17 00:29:26;;;;;;;11.63;6.40;;;;;;;;;;8361063;28;20492;-69
2021/06/17 00:33:30;;;;;;;10.48;6.30;;;;;;;;;;8363167;28;20356;-68
2021/06/17 00:37:38;;;;;;;12.05;6.63;;;;;;;;;;8363305;28;20078;-69
2021/06/17 00:41:44;;;;;;;10.35;6.32;;;;;;;;;;8362517;28;20477;-68
2021/06/17 00:45:51;;;;;;;12.40;6.22;;;;;;;;;;8363744;28;20059;-69
2021/06/17 00:49:59;;;;;;;14.85;7.82;;;;;;;;;;8362202;28;20478;-68
2021/06/17 00:54:05;;;;;;;11.35;6.90;;;;;;;;;;8361802;28;20475;-68
2021/06/17 00:58:11;;;;;;;11.00;7.20;;;;;;;;;;8361995;28;20063;-69
2021/06/17 01:02:16;;;;;;;10.55;7.22;;;;;;;;;;8359655;28;20474;-68
2021/06/17 01:06:21;;;;;;;10.27;6.68;;;;;;;;;;8362562;28;20335;-68
2021/06/17 01:10:52;;;;;;;11.48;7.72;;;;;;;;;;8360827;28;20430;-68
2021/06/17 01:15:06;;;;;;;12.48;7.57;;;;;;;;;;8360752;28;20474;-68
2021/06/17 01:19:30;;;;;;;13.77;7.75;;;;;;;;;;8360612;28;20409;-68
2021/06/17 01:24:04;;;;;;;15.25;8.25;;;;;;;;;;8360149;28;20074;-69
2021/06/17 01:28:13;;;;;;;15.10;7.93;;;;;;;;;;8359448;28;20055;-68
2021/06/17 01:32:19;;;;;;;14.60;8.20;;;;;;;;;;8360199;28;20452;-68
2021/06/17 01:36:35;;;;;;;15.70;9.00;;;;;;;;;;8342037;28;20401;-68
2021/06/17 01:40:41;;;;;;;23.02;11.38;;;;;;;;;;8359864;28;20379;-67
2021/06/17 01:44:48;;;;;;;17.80;11.25;;;;;;;;;;8361305;28;20370;-68
2021/06/17 01:48:55;;;;;;;18.67;10.13;;;;;;;;;;8358877;28;20077;-68
2021/06/17 01:53:01;;;;;;;14.82;9.38;;;;;;;;;;8358874;28;20382;-68
2021/06/17 01:57:09;;;;;;;12.45;7.53;;;;;;;;;;8358646;28;20354;-68
2021/06/17 02:01:19;;;;;;;10.55;7.53;;;;;;;;;;8359843;28;20066;-69
2021/06/17 02:05:25;;;;;;;13.35;7.80;;;;;;;;;;8360309;28;20469;-69
2021/06/17 02:09:32;;;;;;;14.75;7.40;;;;;;;;;;8358053;28;20352;-68
2021/06/17 02:13:37;;;;;;;12.80;7.60;;;;;;;;;;8356959;28;20485;-68
2021/06/17 02:17:45;;;;;;;11.55;7.40;;;;;;;;;;8358732;28;20043;-68
2021/06/17 02:21:54;;;;;;;16.15;8.98;;;;;;;;;;8340956;28;20362;-68
2021/06/17 02:26:02;;;;;;;16.27;8.15;;;;;;;;;;8357242;28;20379;-69
2021/06/17 02:30:11;;;;;;;13.13;7.90;;;;;;;;;;8356262;28;20071;-68
2021/06/17 02:34:18;;;;;;;14.48;8.35;;;;;;;;;;8358308;28;20456;-68
2021/06/17 02:38:31;;;;;;;15.02;8.48;;;;;;;;;;8341866;28;20361;-68
2021/06/17 02:42:38;;;;;;;13.52;8.32;;;;;;;;;;8356142;28;20463;-68
2021/06/17 02:46:43;;;;;;;15.40;9.70;;;;;;;;;;8340436;28;20450;-68
2021/06/17 02:50:48;;;;;;;16.95;9.32;;;;;;;;;;8356776;28;20358;-69
2021/06/17 02:54:54;;;;;;;13.25;9.00;;;;;;;;;;8324782;28;20351;-68
2021/06/17 02:59:14;;;;;;;12.63;8.95;;;;;;;;;;8359930;28;20466;-68
2021/06/17 03:03:32;;;;;;;14.43;9.02;;;;;;;;;;8359667;28;20454;-68
2021/06/17 03:07:46;;;;;;;15.75;9.15;;;;;;;;;;8357645;28;20370;-68
2021/06/17 03:11:57;;;;;;;14.57;8.48;;;;;;;;;;8357546;28;20469;-68
2021/06/17 03:16:03;;;;;;;13.88;8.98;;;;;;;;;;8306215;28;20467;-67
2021/06/17 03:20:10;;;;;;;11.90;7.93;;;;;;;;;;8323573;28;20106;-68
2021/06/17 03:24:16;;;;;;;16.73;8.73;;;;;;;;;;8325473;28;20470;-68
2021/06/17 03:28:25;;;;;;;15.00;8.43;;;;;;;;;;8322132;28;20462;-68
2021/06/17 03:32:33;;;;;;;14.50;8.88;;;;;;;;;;8321184;28;20394;-67
2021/06/17 03:36:41;;;;;;;;;;;;;;;;;;8339106;28;20352;-68
2021/06/17 03:40:48;;;;;;;13.35;8.25;;;;;;;;;;8323046;28;20342;-68
2021/06/17 03:44:55;;;;;;;12.13;8.18;;;;;;;;;;8321509;28;20052;-67
2021/06/17 03:49:02;;;;;;;15.75;9.07;;;;;;;;;;8337524;28;20359;-67
2021/06/17 03:53:08;;;;;;;16.83;8.38;;;;;;;;;;8322577;28;20489;-67
2021/06/17 03:57:13;;;;;;;14.05;8.48;;;;;;;;;;8337503;28;20463;-67
2021/06/17 04:01:20;;;;;;;15.43;8.43;;;;;;;;;;8338617;28;20420;-68
2021/06/17 04:05:26;;;;;;;12.48;7.82;;;;;;;;;;8322258;28;20066;-68
2021/06/17 04:09:34;;;;;;;16.50;8.48;;;;;;;;;;8335923;28;20410;-69
2021/06/17 04:13:43;;;;;;;16.73;8.50;;;;;;;;;;8344155;28;20501;-68
2021/06/17 04:17:54;;;;;;;18.02;7.75;;;;;;;;;;8355514;28;20382;-67
2021/06/17 04:22:04;;;;;;;14.05;7.68;;;;;;;;;;8354498;28;20397;-68
2021/06/17 04:26:10;;;;;;;11.10;7.65;;;;;;;;;;8356618;28;20465;-68
2021/06/17 04:30:18;;;;;;;12.68;7.45;;;;;;;;;;8353462;28;20470;-67
2021/06/17 04:34:23;;;;;;;;;;;;;;;;;;8357160;28;20085;-68
2021/06/17 04:38:29;;;;;;;10.30;7.00;;;;;;;;;;8355645;28;20342;-68
2021/06/17 04:42:35;;;;;;;13.20;6.97;;;;;;;;;;8354604;28;20346;-67
2021/06/17 04:46:41;;;;;;;10.00;6.28;;;;;;;;;;8342944;28;20351;-67
2021/06/17 04:50:46;;;;;;;14.52;7.80;;;;;;;;;;8362645;28;20457;-67
2021/06/17 04:54:52;;;;;;;13.45;7.63;;;;;;;;;;8359862;28;20470;-68
2021/06/17 04:58:57;;;;;;;10.82;6.00;;;;;;;;;;8361164;28;20357;-67
2021/06/17 05:03:01;;;;;;;15.23;6.57;;;;;;;;;;8361494;28;20339;-68
2021/06/17 05:07:40;;;;;;;11.13;7.15;;;;;;;;;;8343236;28;20488;-68
2021/06/17 05:11:45;;;;;;;7.40;5.40;;;;;;;;;;8360189;28;20477;-69
2021/06/17 05:15:53;;;;;;;10.27;6.07;;;;;;;;;;8325593;28;20387;-67
2021/06/17 05:19:59;;;;;;;9.18;5.07;;;;;;;;;;8342833;28;20366;-68
2021/06/17 05:24:05;;;;;;;12.95;5.22;;;;;;;;;;8329343;28;20474;-68
2021/06/17 05:28:17;;;;;;;7.63;4.88;;;;;;;;;;8326124;28;20362;-68
2021/06/17 05:32:24;;;;;;;10.88;5.25;;;;;;;;;;8329129;28;20352;-68
2021/06/17 05:36:29;;;;;;;9.05;4.95;;;;;;;;;;8327083;28;20383;-68
2021/06/17 05:40:34;;;;;;;10.63;4.80;;;;;;;;;;8325338;28;20075;-69
2021/06/17 05:44:38;;;;;;;8.95;4.93;;;;;;;;;;8326846;28;20497;-68
2021/06/17 05:48:43;;;;;;;11.05;4.32;;;;;;;;;;8326283;28;20485;-69
2021/06/17 05:52:49;;;;;;;8.30;4.53;;;;;;;;;;8325452;28;20478;-68
2021/06/17 05:56:54;;;;;;;8.60;4.00;;;;;;;;;;8341868;28;20463;-69
2021/06/17 06:01:00;;;;;;;8.88;4.47;;;;;;;;;;8325980;28;20390;-69
2021/06/17 06:05:06;;;;;;;9.13;4.22;;;;;;;;;;8327872;28;20387;-68
2021/06/17 06:09:13;;;;;;;7.07;4.13;;;;;;;;;;8326061;28;20079;-69
2021/06/17 06:13:17;;;;;;;7.20;4.03;;;;;;;;;;8329818;28;20043;-68
2021/06/17 06:17:22;;;;;;;8.70;3.70;;;;;;;;;;8354881;28;20374;-68
2021/06/17 06:21:28;;;;;;;4.45;3.60;;;;;;;;;;8357794;28;20386;-68
2021/06/17 06:25:35;;;;;;;7.13;3.78;;;;;;;;;;8358417;28;20349;-68
2021/06/17 06:29:40;;;;;;;6.77;3.50;;;;;;;;;;8357435;28;20471;-68
2021/06/17 06:33:46;;;;;;;14.37;3.83;;;;;;;;;;8357377;28;20467;-68
2021/06/17 06:37:51;;;;;;;7.28;3.30;;;;;;;;;;8341104;28;20475;-69
2021/06/17 06:41:56;;;;;;;7.40;3.75;;;;;;;;;;8356845;28;20483;-68
2021/06/17 06:46:02;;;;;;;5.22;3.15;;;;;;;;;;8357030;28;20382;-68
2021/06/17 06:50:09;;;;;;;7.90;3.50;;;;;;;;;;8356704;28;20467;-68
2021/06/17 06:54:18;;;;;;;6.53;3.15;;;;;;;;;;8358266;28;20373;-68
2021/06/17 06:58:26;;;;;;;4.28;3.10;;;;;;;;;;8355782;28;20375;-69
2021/06/17 07:02:33;;;;;;;6.43;3.33;;;;;;;;;;8357610;28;20378;-68
2021/06/17 07:06:39;;;;;;;;;;;;;;;;;;8359963;28;20374;-65
2021/06/17 07:10:46;;;;;;;8.77;3.03;;;;;;;;;;8338284;28;20307;-65
2021/06/17 07:14:52;;;;;;;10.02;2.85;;;;;;;;;;8355680;28;20453;-66
2021/06/17 07:18:57;;;;;;;6.60;2.70;;;;;;;;;;8354828;28;20382;-65
2021/06/17 07:23:03;;;;;;;6.25;3.13;;;;;;;;;;8338483;28;20382;-67
2021/06/17 07:27:08;;;;;;;6.63;3.05;;;;;;;;;;8359079;28;20366;-68
2021/06/17 07:31:15;;;;;;;6.70;3.00;;;;;;;;;;8357552;28;20070;-67
2021/06/17 07:35:21;;;;;;;4.88;2.92;;;;;;;;;;8357415;28;20473;-69
2021/06/17 07:39:27;;;;;;;4.60;2.53;;;;;;;;;;8358834;28;20474;-68
2021/06/17 07:43:32;;;;;;;6.70;2.97;;;;;;;;;;8356220;28;20416;-68
2021/06/17 07:47:39;;;;;;;5.75;2.92;;;;;;;;;;8355976;28;20404;-67
2021/06/17 07:51:44;;;;;;;15.00;3.20;;;;;;;;;;8338896;28;20489;-67
2021/06/17 07:55:50;;;;;;;6.15;3.30;;;;;;;;;;8355705;28;20478;-67
2021/06/17 07:59:55;;;;;;;6.20;3.10;;;;;;;;;;8357948;28;20330;-67
2021/06/17 08:04:06;;;;;;;5.72;3.10;;;;;;;;;;8339541;28;20385;-68
2021/06/17 08:08:12;;;;;;;5.10;3.00;;;;;;;;;;8356385;28;20435;-67
2021/06/17 08:12:17;;;;;;;6.10;2.90;;;;;;;;;;8357076;28;20355;-68
2021/06/17 08:16:23;;;;;;;5.13;3.00;;;;;;;;;;8356105;28;20371;-68
2021/06/17 08:20:28;;;;;;;5.47;2.88;;;;;;;;;;8357372;28;20489;-67
2021/06/17 08:24:37;;;;;;;4.85;2.60;;;;;;;;;;8361634;28;20040;-68
2021/06/17 08:28:42;;;;;;;7.20;3.13;;;;;;;;;;8362672;28;20451;-67
2021/06/17 08:32:49;;;;;;;3.83;3.15;;;;;;;;;;8361619;28;20492;-68
2021/06/17 08:36:55;;;;;;;11.88;4.35;;;;;;;;;;8362065;28;20343;-68
2021/06/17 08:41:00;;;;;;;10.10;3.27;;;;;;;;;;8361183;28;20047;-68
2021/06/17 08:45:26;;;;;;;8.00;3.13;;;;;;;;;;8362889;28;20335;-67
2021/06/17 08:49:34;;;;;;;;;;;;;;;;;;8363427;28;20074;-67
2021/06/17 08:53:38;;;;;;;4.43;3.08;;;;;;;;;;8361384;28;20338;-67
2021/06/17 08:57:42;;;;;;;7.43;2.65;;;;;;;;;;8362274;28;20401;-67
2021/06/17 09:01:55;;;;;;;9.52;3.40;;;;;;;;;;8360808;28;20353;-67
2021/06/17 09:06:00;;;;;;;11.40;3.35;;;;;;;;;;8361321;28;20055;-68
2021/06/17 09:10:09;;;;;;;7.28;2.80;;;;;;;;;;8342318;28;20500;-68
2021/06/17 09:14:21;;;;;;;4.07;2.83;;;;;;;;;;8341056;28;20356;-68
2021/06/17 09:18:34;;;;;;;3.33;2.50;;;;;;;;;;8340786;28;20446;-68
2021/06/17 09:22:41;;;;;;;7.38;2.92;;;;;;;;;;8361775;28;20361;-69
2021/06/17 09:26:46;;;;;;;4.97;2.85;;;;;;;;;;8360145;28;20056;-69
2021/06/17 09:30:52;;;;;;;7.45;2.80;;;;;;;;;;8359390;28;20481;-68
2021/06/17 09:34:57;;;;;;;5.72;2.40;;;;;;;;;;8359398;28;20367;-67
2021/06/17 09:39:10;;;;;;;7.15;2.80;;;;;;;;;;8359249;28;20370;-68
2021/06/17 09:43:28;;;;;;;4.35;2.53;;;;;;;;;;8360098;28;20386;-67
2021/06/17 09:47:34;;;;;;;5.03;2.65;;;;;;;;;;8360920;28;20435;-68
2021/06/17 09:51:44;;;;;;;3.73;2.20;;;;;;;;;;8357361;28;20377;-68
2021/06/17 09:55:50;;;;;;;2.75;2.00;;;;;;;;;;8358754;28;20382;-67
2021/06/17 09:59:56;;;;;;;6.10;3.27;;;;;;;;;;8359890;28;20089;-67
2021/06/17 10:04:16;;;;;;;7.78;2.70;;;;;;;;;;8358517;28;20465;-67
2021/06/17 10:08:23;;;;;;;5.72;2.30;;;;;;;;;;8358178;28;20460;-67
2021/06/17 10:12:29;;;;;;;5.97;2.43;;;;;;;;;;8356167;28;20461;-67
2021/06/17 10:16:34;;;;;;;6.82;2.35;;;;;;;;;;8359848;28;20375;-67
2021/06/17 10:20:40;;;;;;;6.85;2.50;;;;;;;;;;8359814;28;20459;-69
2021/06/17 10:24:45;;;;;;;6.28;2.53;;;;;;;;;;8357673;28;20420;-68
2021/06/17 10:28:54;;;;;;;4.22;2.38;;;;;;;;;;8340375;28;20378;-68
2021/06/17 10:33:01;;;;;;;5.53;2.58;;;;;;;;;;8340942;28;20450;-68
2021/06/17 10:37:33;;;;;;;5.82;2.33;;;;;;;;;;8357669;28;20476;-68
2021/06/17 10:42:04;;;;;;;4.43;2.10;;;;;;;;;;8359966;28;20468;-67
2021/06/17 10:46:12;;;;;;;8.55;2.55;;;;;;;;;;8323257;28;20077;-67
2021/06/17 10:50:22;;;;;;;6.00;2.60;;;;;;;;;;8356305;28;20456;-69
2021/06/17 10:55:13;;;;;;;3.20;2.53;;;;;;;;;;8358842;28;20214;-68
2021/06/17 10:59:30;;;;;;;5.97;2.20;;;;;;;;;;8358350;28;20481;-68
2021/06/17 11:03:39;;;;;;;3.40;1.70;;;;;;;;;;8355171;28;20044;-68
2021/06/17 11:08:17;;;;;;;4.40;2.33;;;;;;;;;;8340004;28;20443;-68
2021/06/17 11:12:24;;;;;;;3.70;2.20;;;;;;;;;;8357684;28;20400;-68
2021/06/17 11:16:31;;;;;;;10.83;2.87;;;;;;;;;;8356203;28;20369;-68
2021/06/17 11:20:39;;;;;;;6.40;2.20;;;;;;;;;;8354819;28;20073;-68
2021/06/17 11:24:45;;;;;;;4.13;2.58;;;;;;;;;;8358072;28;20493;-68
2021/06/17 11:28:53;;;;;;;6.03;2.50;;;;;;;;;;8355807;28;20402;-68
2021/06/17 11:33:17;;;;;;;6.65;2.17;;;;;;;;;;8338877;28;20373;-68
2021/06/17 11:37:22;;;;;;;4.25;2.47;;;;;;;;;;8355923;28;20473;-68
2021/06/17 11:41:30;;;;;;;4.63;2.40;;;;;;;;;;8337873;28;20477;-68
2021/06/17 11:45:37;;;;;;;7.80;3.05;;;;;;;;;;8356175;28;20500;-68
2021/06/17 11:49:47;;;;;;;3.80;2.70;;;;;;;;;;8356625;28;20381;-67
2021/06/17 11:53:55;;;;;;;7.38;2.75;;;;;;;;;;8338397;28;20223;-69
2021/06/17 11:58:09;;;;;;;5.95;2.70;;;;;;;;;;8345515;28;20370;-68
2021/06/17 12:02:27;;;;;;;6.13;3.70;;;;;;;;;;8364497;28;20067;-69
2021/06/17 12:06:34;;;;;;;6.00;2.92;;;;;;;;;;8363066;28;20048;-68
2021/06/17 12:10:41;;;;;;;5.95;2.88;;;;;;;;;;8362093;28;20987;-68
2021/06/17 12:15:07;;;;;;;4.45;2.53;;;;;;;;;;8343994;28;20351;-68
2021/06/17 12:19:17;;;;;;;5.57;3.00;;;;;;;;;;8325624;28;20459;-69
2021/06/17 12:23:30;;;;;;;3.97;2.60;;;;;;;;;;8342373;28;20056;-68
2021/06/17 12:27:41;;;;;;;5.30;3.22;;;;;;;;;;8343364;28;20393;-68
2021/06/17 12:31:55;;;;;;;5.82;3.30;;;;;;;;;;8329579;28;20052;-68
2021/06/17 12:36:03;;;;;;;4.80;3.25;;;;;;;;;;8326605;28;20362;-68
2021/06/17 12:40:09;;;;;;;5.22;3.08;;;;;;;;;;8327618;28;20459;-68
2021/06/17 12:44:36;;;;;;;6.90;3.95;;;;;;;;;;8328105;28;20390;-67
2021/06/17 12:53:07;;;;;;;4.65;3.10;;;;;;;;;;8326656;28;20457;-69
2021/06/17 12:57:12;;;;;;;7.85;3.00;;;;;;;;;;8330217;28;20348;-68
2021/06/17 13:01:17;;;;;;;7.97;3.30;;;;;;;;;;8328330;28;20367;-68
2021/06/17 13:05:25;;;;;;;7.97;3.38;;;;;;;;;;8342204;28;20463;-68
2021/06/17 13:09:32;;;;;;;6.40;3.22;;;;;;;;;;8325566;28;20459;-67
2021/06/17 13:13:38;;;;;;;7.13;3.33;;;;;;;;;;8333202;28;20055;-66
2021/06/17 13:17:49;;;;;;;4.20;2.93;;;;;;;;;;8343965;28;20454;-68
2021/06/17 13:22:06;;;;;;;7.35;3.22;;;;;;;;;;8341752;28;20361;-66
2021/06/17 13:26:14;;;;;;;5.78;3.15;;;;;;;;;;8359557;28;20354;-66
2021/06/17 13:30:33;;;;;;;3.25;2.55;;;;;;;;;;8360322;28;20474;-66
2021/06/17 13:34:38;;;;;;;3.83;2.80;;;;;;;;;;8359881;28;20442;-66
2021/06/17 13:38:45;;;;;;;4.07;2.80;;;;;;;;;;8359423;28;20478;-68
2021/06/17 13:42:59;;;;;;;4.15;2.90;;;;;;;;;;8357525;28;20051;-67
2021/06/17 13:47:07;;;;;;;7.50;2.75;;;;;;;;;;8343989;28;20369;-67
2021/06/17 13:51:13;;;;;;;5.97;3.38;;;;;;;;;;8359475;28;20431;-67
2021/06/17 13:55:19;;;;;;;5.90;2.87;;;;;;;;;;8342624;28;20384;-66
2021/06/17 13:59:24;;;;;;;11.20;3.63;;;;;;;;;;8358557;28;20382;-67
2021/06/17 14:03:31;;;;;;;4.60;2.97;;;;;;;;;;8360661;28;20070;-67
2021/06/17 14:07:37;;;;;;;4.17;2.97;;;;;;;;;;8355925;28;20497;-67
2021/06/17 14:11:43;;;;;;;8.27;3.20;;;;;;;;;;8358288;28;20965;-66
2021/06/17 14:15:48;;;;;;;5.57;2.83;;;;;;;;;;8339301;28;20475;-67
2021/06/17 14:19:54;;;;;;;5.32;2.85;;;;;;;;;;8324251;28;20359;-66
2021/06/17 14:23:59;;;;;;;5.60;3.35;;;;;;;;;;8324680;28;20060;-67
2021/06/17 14:28:06;;;;;;;7.13;3.00;;;;;;;;;;8326333;28;20443;-67
2021/06/17 14:32:12;;;;;;;5.30;3.22;;;;;;;;;;8325056;28;20447;-67
2021/06/17 14:36:17;;;;;;;7.30;2.58;;;;;;;;;;8326685;28;20466;-67
2021/06/17 14:40:22;;;;;;;6.50;3.35;;;;;;;;;;8323734;28;20451;-66
2021/06/17 14:44:27;;;;;;;4.10;2.65;;;;;;;;;;8339116;28;20455;-67
2021/06/17 14:48:33;;;;;;;7.20;3.13;;;;;;;;;;8324357;28;20466;-66
2021/06/17 14:52:38;;;;;;;5.18;3.08;;;;;;;;;;8323535;28;20044;-67
2021/06/17 14:56:44;;;;;;;4.50;3.28;;;;;;;;;;8323534;28;20087;-66
2021/06/17 15:00:49;;;;;;;5.35;2.90;;;;;;;;;;8324741;28;20470;-66
2021/06/17 15:04:54;;;;;;;6.53;3.00;;;;;;;;;;8324163;28;20394;-67
2021/06/17 15:09:00;;;;;;;8.52;3.28;;;;;;;;;;8323651;28;20405;-67
2021/06/17 15:13:05;;;;;;;4.93;2.90;;;;;;;;;;8326931;28;20047;-67
2021/06/17 15:17:10;;;;;;;5.05;2.92;;;;;;;;;;8338334;28;20066;-67
2021/06/17 15:21:17;;;;;;;4.45;2.90;;;;;;;;;;8356551;28;20493;-67
2021/06/17 15:25:23;;;;;;;5.53;3.28;;;;;;;;;;8355510;28;20520;-68
2021/06/17 15:29:28;;;;;;;6.88;2.95;;;;;;;;;;8354113;28;20040;-67
2021/06/17 15:33:33;;;;;;;5.55;2.95;;;;;;;;;;8357533;28;20043;-66
2021/06/17 15:37:38;;;;;;;6.78;2.75;;;;;;;;;;8356277;28;20400;-67
2021/06/17 15:41:44;;;;;;;5.60;3.22;;;;;;;;;;8355379;28;20519;-67
2021/06/17 15:45:49;;;;;;;7.07;3.05;;;;;;;;;;8356654;28;20052;-67
2021/06/17 15:49:55;;;;;;;4.88;2.88;;;;;;;;;;8355495;28;20662;-67
2021/06/17 15:54:02;;;;;;;5.15;3.10;;;;;;;;;;8356484;28;20493;-68
2021/06/17 15:58:09;;;;;;;5.05;2.90;;;;;;;;;;8356868;28;20366;-67
2021/06/17 16:02:14;;;;;;;6.80;3.38;;;;;;;;;;8355536;28;20346;-67
2021/06/17 16:06:20;;;;;;;4.07;2.80;;;;;;;;;;8354541;28;20488;-67
2021/06/17 16:10:28;;;;;;;6.55;2.95;;;;;;;;;;8337425;28;20443;-68
2021/06/17 16:14:33;;;;;;;3.80;2.72;;;;;;;;;;8354644;28;20474;-67
2021/06/17 16:18:37;;;;;;;5.85;2.80;;;;;;;;;;8355388;28;20396;-68
2021/06/17 16:22:41;;;;;;;4.50;2.75;;;;;;;;;;8354750;28;20047;-67
2021/06/17 16:26:46;;;;;;;4.63;2.92;;;;;;;;;;8354359;28;20074;-67
2021/06/17 16:30:51;;;;;;;7.47;2.90;;;;;;;;;;8355598;28;20481;-67
2021/06/17 16:34:57;;;;;;;3.38;2.38;;;;;;;;;;8354949;28;20377;-67
2021/06/17 16:39:12;;;;;;;11.13;2.60;;;;;;;;;;8355478;28;20483;-67
2021/06/17 16:43:17;;;;;;;6.07;2.60;;;;;;;;;;8344085;28;20047;-67
2021/06/17 16:47:23;;;;;;;4.38;2.45;;;;;;;;;;8360648;28;20458;-66
2021/06/17 16:51:29;;;;;;;6.95;2.75;;;;;;;;;;8361081;28;20408;-67
2021/06/17 16:55:35;;;;;;;3.47;2.65;;;;;;;;;;8360928;28;20081;-67
2021/06/17 16:59:42;;;;;;;4.10;2.40;;;;;;;;;;8361286;28;20439;-67
2021/06/17 17:03:47;;;;;;;4.90;2.33;;;;;;;;;;8361115;28;20040;-67
2021/06/17 17:07:52;;;;;;;4.88;2.83;;;;;;;;;;8361215;28;20366;-67
2021/06/17 17:11:58;;;;;;;5.95;2.50;;;;;;;;;;8360357;28;20065;-67
2021/06/17 17:16:04;;;;;;;2.83;2.00;;;;;;;;;;8359701;28;20055;-66
2021/06/17 17:20:11;;;;;;;5.00;2.10;;;;;;;;;;8360508;28;20479;-67
2021/06/17 17:24:15;;;;;;;5.22;2.20;;;;;;;;;;8360099;28;20462;-67
2021/06/17 17:28:20;;;;;;;6.55;3.08;;;;;;;;;;8359900;28;20408;-71
2021/06/17 17:32:26;;;;;;;7.90;2.28;;;;;;;;;;8360288;28;20043;-67
2021/06/17 17:36:31;;;;;;;5.00;2.42;;;;;;;;;;8359401;28;20051;-69
2021/06/17 17:40:35;;;;;;;3.22;2.40;;;;;;;;;;8357245;28;20474;-69
2021/06/17 17:44:41;;;;;;;4.28;2.33;;;;;;;;;;8359041;28;20580;-68
2021/06/17 17:48:46;;;;;;;3.67;2.45;;;;;;;;;;8359274;28;20412;-68
2021/06/17 17:52:51;;;;;;;8.45;2.92;;;;;;;;;;8358325;28;20048;-68
2021/06/17 17:56:55;;;;;;;3.03;2.40;;;;;;;;;;8359030;28;20489;-68
2021/06/17 18:01:01;;;;;;;4.45;2.33;;;;;;;;;;8359416;28;20392;-68
2021/06/17 18:05:07;;;;;;;5.65;3.00;;;;;;;;;;8359003;28;20393;-68
2021/06/17 18:09:15;;;;;;;6.38;2.80;;;;;;;;;;8361432;28;20480;-68
2021/06/17 18:13:22;;;;;;;2.95;2.33;;;;;;;;;;8358804;28;20382;-69
2021/06/17 18:17:28;;;;;;;7.63;3.00;;;;;;;;;;8357535;28;20401;-68
2021/06/17 18:21:33;;;;;;;3.55;2.35;;;;;;;;;;8356804;28;20044;-68
2021/06/17 18:25:42;;;;;;;3.28;2.33;;;;;;;;;;8357359;28;20366;-68
2021/06/17 18:29:48;;;;;;;4.35;2.80;;;;;;;;;;8358521;28;20456;-68
2021/06/17 18:33:54;;;;;;;4.75;2.72;;;;;;;;;;8340770;28;20431;-69
2021/06/17 18:38:00;;;;;;;7.05;2.78;;;;;;;;;;8356510;28;20478;-68
2021/06/17 18:42:06;;;;;;;5.32;3.05;;;;;;;;;;8357394;28;20379;-68
2021/06/17 18:46:11;;;;;;;3.45;2.72;;;;;;;;;;8359033;28;20486;-68
2021/06/17 18:50:16;;;;;;;7.57;3.08;;;;;;;;;;8358682;28;20353;-68
2021/06/17 18:54:43;;;;;;;4.03;3.00;;;;;;;;;;8355526;28;20369;-68
2021/06/17 18:58:48;;;;;;;5.35;3.00;;;;;;;;;;8340464;28;20405;-68
2021/06/17 19:02:55;;;;;;;6.10;3.35;;;;;;;;;;8356723;28;20464;-68
2021/06/17 19:07:02;;;;;;;4.82;3.10;;;;;;;;;;8355772;28;20051;-69
2021/06/17 19:11:07;;;;;;;8.25;3.33;;;;;;;;;;8357534;28;20351;-69
2021/06/17 19:15:14;;;;;;;7.45;3.47;;;;;;;;;;8355838;28;20463;-69
2021/06/17 19:19:21;;;;;;;5.00;3.45;;;;;;;;;;8357989;28;20451;-68
2021/06/17 19:23:29;;;;;;;6.43;3.50;;;;;;;;;;8353643;28;20055;-68
2021/06/17 19:27:34;;;;;;;8.52;3.50;;;;;;;;;;8355784;28;20048;-68
2021/06/17 19:31:42;;;;;;;8.60;3.60;;;;;;;;;;8357822;28;20450;-68
2021/06/17 19:35:49;;;;;;;10.73;3.90;;;;;;;;;;8357083;28;20470;-69
2021/06/17 19:39:55;;;;;;;6.18;3.70;;;;;;;;;;8355137;28;20376;-68
2021/06/17 19:44:02;;;;;;;13.50;3.85;;;;;;;;;;8357868;28;20496;-68
2021/06/17 19:48:08;;;;;;;9.40;3.60;;;;;;;;;;8356099;28;20416;-69
2021/06/17 19:52:19;;;;;;;9.60;3.50;;;;;;;;;;8355340;28;20516;-68
2021/06/17 19:56:25;;;;;;;9.20;3.70;;;;;;;;;;8339202;28;20462;-68
2021/06/17 20:00:31;;;;;;;6.72;4.00;;;;;;;;;;8355973;28;20374;-70
2021/06/17 20:04:38;;;;;;;6.28;4.05;;;;;;;;;;8355431;28;20400;-68
2021/06/17 20:09:09;;;;;;;7.20;4.32;;;;;;;;;;8354225;28;20482;-68
2021/06/17 20:13:14;;;;;;;6.90;4.20;;;;;;;;;;8356331;28;20405;-68
2021/06/17 20:17:22;;;;;;;10.30;4.15;;;;;;;;;;8357437;28;20476;-67
2021/06/17 20:21:27;;;;;;;6.40;4.32;;;;;;;;;;8341219;28;20058;-68
2021/06/17 20:25:33;;;;;;;8.00;4.45;;;;;;;;;;8362905;28;20350;-69
2021/06/17 20:29:38;;;;;;;9.43;4.40;;;;;;;;;;8361495;28;20367;-69
2021/06/17 20:33:43;;;;;;;5.88;3.83;;;;;;;;;;8344638;28;20110;-69
2021/06/17 20:37:49;;;;;;;6.47;3.95;;;;;;;;;;8362536;28;20469;-68
2021/06/17 20:41:55;;;;;;;10.38;4.43;;;;;;;;;;8362367;28;20499;-68
2021/06/17 20:46:01;;;;;;;6.53;4.07;;;;;;;;;;8359916;28;20073;-69
2021/06/17 20:50:09;;;;;;;8.07;4.68;;;;;;;;;;8360341;28;20509;-68
2021/06/17 20:54:21;;;;;;;8.23;4.68;;;;;;;;;;8363111;28;20431;-68
2021/06/17 20:58:25;;;;;;;6.90;3.72;;;;;;;;;;8361356;28;20488;-68
2021/06/17 21:02:31;;;;;;;9.63;4.60;;;;;;;;;;8360452;28;20501;-69
2021/06/17 21:06:36;;;;;;;6.03;4.55;;;;;;;;;;8360558;28;20075;-68
2021/06/17 21:10:41;;;;;;;6.53;4.07;;;;;;;;;;8361005;28;20390;-68
2021/06/17 21:14:47;;;;;;;7.53;3.75;;;;;;;;;;8359496;28;20493;-68
2021/06/17 21:18:53;;;;;;;5.97;4.03;;;;;;;;;;8360098;28;20069;-68
2021/06/17 21:22:58;;;;;;;5.93;3.88;;;;;;;;;;8360449;28;20393;-68
2021/06/17 21:27:03;;;;;;;8.52;4.20;;;;;;;;;;8340734;28;20378;-68
2021/06/17 21:31:09;;;;;;;6.35;4.00;;;;;;;;;;8342523;28;20048;-68
2021/06/17 21:35:14;;;;;;;6.65;3.90;;;;;;;;;;8360654;28;20366;-68
2021/06/17 21:39:20;;;;;;;6.13;3.88;;;;;;;;;;8341906;28;20550;-67
2021/06/17 21:43:25;;;;;;;7.10;4.28;;;;;;;;;;8359899;28;20470;-67
2021/06/17 21:47:30;;;;;;;6.45;4.07;;;;;;;;;;8360018;28;20478;-68
2021/06/17 21:51:36;;;;;;;8.57;4.25;;;;;;;;;;8341717;28;20510;-69
2021/06/17 21:55:41;;;;;;;5.30;3.83;;;;;;;;;;8359070;28;20060;-68
2021/06/17 21:59:46;;;;;;;8.75;3.85;;;;;;;;;;8341117;28;20055;-68
2021/06/17 22:03:52;;;;;;;7.75;3.97;;;;;;;;;;8359136;28;20488;-68
2021/06/17 22:07:58;;;;;;;5.93;3.67;;;;;;;;;;8358538;28;20043;-68
2021/06/17 22:12:05;;;;;;;7.00;4.00;;;;;;;;;;8357484;28;20535;-68
2021/06/17 22:16:11;;;;;;;4.55;3.53;;;;;;;;;;8340431;28;20386;-68
2021/06/17 22:20:16;;;;;;;7.93;4.35;;;;;;;;;;8325336;28;20483;-68
2021/06/17 22:24:26;;;;;;;5.65;3.55;;;;;;;;;;8324899;28;20471;-68
2021/06/17 22:28:31;;;;;;;11.70;3.78;;;;;;;;;;8339802;28;20371;-68
2021/06/17 22:32:37;;;;;;;8.73;4.72;;;;;;;;;;8325402;28;20467;-69
2021/06/17 22:36:43;;;;;;;6.47;3.92;;;;;;;;;;8324356;28;20447;-68
2021/06/17 22:40:48;;;;;;;9.73;6.40;;;;;;;;;;8324690;28;20367;-68
2021/06/17 22:44:54;;;;;;;5.75;3.20;;;;;;;;;;8324670;28;20475;-68
2021/06/17 22:49:00;;;;;;;6.47;4.05;;;;;;;;;;8324493;28;20051;-68
2021/06/17 22:53:06;;;;;;;10.10;3.63;;;;;;;;;;8325175;28;20459;-68
2021/06/17 22:57:10;;;;;;;12.23;4.30;;;;;;;;;;8324125;28;20351;-68
2021/06/17 23:01:16;;;;;;;5.95;3.65;;;;;;;;;;8324107;28;20355;-68
2021/06/17 23:05:21;;;;;;;5.65;3.65;;;;;;;;;;8325151;28;20369;-69
2021/06/17 23:09:27;;;;;;;8.77;3.45;;;;;;;;;;8323855;28;20379;-68
2021/06/17 23:13:32;;;;;;;7.50;4.20;;;;;;;;;;8325848;28;20066;-68
2021/06/17 23:17:37;;;;;;;7.38;3.53;;;;;;;;;;8356535;28;20458;-68
2021/06/17 23:21:44;;;;;;;5.25;3.33;;;;;;;;;;8357556;28;20595;-68
2021/06/17 23:25:50;;;;;;;8.35;3.67;;;;;;;;;;8341403;28;20469;-68
2021/06/17 23:29:55;;;;;;;6.43;3.75;;;;;;;;;;8356306;28;20397;-69
2021/06/17 23:34:00;;;;;;;8.95;4.00;;;;;;;;;;8356546;28;20481;-68
2021/06/17 23:38:05;;;;;;;9.60;4.05;;;;;;;;;;8357532;28;20374;-68
2021/06/17 23:42:11;;;;;;;10.43;3.47;;;;;;;;;;8356809;28;20374;-68
2021/06/17 23:46:17;;;;;;;11.63;3.70;;;;;;;;;;8356206;28;20484;-68
2021/06/17 23:50:26;;;;;;;6.30;3.47;;;;;;;;;;8356387;28;20409;-68
2021/06/17 23:54:32;;;;;;;7.65;3.88;;;;;;;;;;8356061;28;20386;-69
2021/06/17 23:58:37;;;;;;;5.68;4.10;;;;;;;;;;8357412;28;20450;-68
